sensor_id;sensor_type;location;lat;lon;timestamp;P1;durP1;ratioP1;P2;durP2;ratioP2
80334;SDS011;69653;52.674;13.574;2023-07-20T00:02:14;5.03;;;2.40;;
80334;SDS011;69653;52.674;13.574;2023-07-20T00:04:40;3.83;;;2.13;;
80334;SDS011;69653;52.674;13.574;2023-07-20T00:07:05;4.47;;;2.17;;
80334;SDS011;69653;52.674;13.574;2023-07-20T00:09:30;4.83;;;2.50;;
80334;SDS011;69653;52.674;13.574;2023-07-20T00:11:56;4.63;;;2.47;;
80334;SDS011;69653;52.674;13.574;2023-07-20T00:14:21;7.53;;;2.38;;
80334;SDS011;69653;52.674;13.574;2023-07-20T00:16:49;4.32;;;2.30;;
80334;SDS011;69653;52.674;13.574;2023-07-20T00:19:20;4.80;;;2.38;;
80334;SDS011;69653;52.674;13.574;2023-07-20T00:21:45;6.35;;;2.72;;
80334;SDS011;69653;52.674;13.574;2023-07-20T00:24:11;5.40;;;2.77;;
80334;SDS011;69653;52.674;13.574;2023-07-20T00:26:36;6.17;;;2.70;;
80334;SDS011;69653;52.674;13.574;2023-07-20T00:29:01;5.27;;;2.63;;
80334;SDS011;69653;52.674;13.574;2023-07-20T00:31:27;5.57;;;3.07;;
80334;SDS011;69653;52.674;13.574;2023-07-20T00:33:53;7.78;;;2.80;;
80334;SDS011;69653;52.674;13.574;2023-07-20T00:36:19;5.00;;;2.70;;
80334;SDS011;69653;52.674;13.574;2023-07-20T00:38:44;5.95;;;2.35;;
80334;SDS011;69653;52.674;13.574;2023-07-20T00:41:09;4.77;;;2.57;;
80334;SDS011;69653;52.674;13.574;2023-07-20T00:43:35;4.93;;;2.47;;
80334;SDS011;69653;52.674;13.574;2023-07-20T00:46:00;5.30;;;2.60;;
80334;SDS011;69653;52.674;13.574;2023-07-20T00:48:27;4.07;;;2.53;;
80334;SDS011;69653;52.674;13.574;2023-07-20T00:50:53;4.95;;;2.58;;
80334;SDS011;69653;52.674;13.574;2023-07-20T00:53:19;6.07;;;2.95;;
80334;SDS011;69653;52.674;13.574;2023-07-20T00:55:45;5.82;;;2.85;;
80334;SDS011;69653;52.674;13.574;2023-07-20T00:58:10;5.05;;;2.38;;
80334;SDS011;69653;52.674;13.574;2023-07-20T01:00:36;6.85;;;3.28;;
80334;SDS011;69653;52.674;13.574;2023-07-20T01:03:01;4.63;;;2.90;;
80334;SDS011;69653;52.674;13.574;2023-07-20T01:05:31;5.20;;;2.80;;
80334;SDS011;69653;52.674;13.574;2023-07-20T01:08:35;5.32;;;2.67;;
80334;SDS011;69653;52.674;13.574;2023-07-20T01:11:10;5.65;;;2.58;;
80334;SDS011;69653;52.674;13.574;2023-07-20T01:13:42;5.38;;;3.03;;
80334;SDS011;69653;52.674;13.574;2023-07-20T01:16:08;6.00;;;3.10;;
80334;SDS011;69653;52.674;13.574;2023-07-20T01:18:34;4.68;;;2.90;;
80334;SDS011;69653;52.674;13.574;2023-07-20T01:20:59;5.10;;;2.90;;
80334;SDS011;69653;52.674;13.574;2023-07-20T01:23:35;5.47;;;3.17;;
80334;SDS011;69653;52.674;13.574;2023-07-20T01:26:36;5.45;;;3.17;;
80334;SDS011;69653;52.674;13.574;2023-07-20T01:29:35;5.63;;;2.85;;
80334;SDS011;69653;52.674;13.574;2023-07-20T01:32:04;6.10;;;2.95;;
80334;SDS011;69653;52.674;13.574;2023-07-20T01:34:32;5.95;;;3.40;;
80334;SDS011;69653;52.674;13.574;2023-07-20T01:37:01;6.07;;;3.83;;
80334;SDS011;69653;52.674;13.574;2023-07-20T01:39:28;5.63;;;2.90;;
80334;SDS011;69653;52.674;13.574;2023-07-20T01:41:54;6.75;;;3.72;;
80334;SDS011;69653;52.674;13.574;2023-07-20T01:44:20;10.00;;;3.83;;
80334;SDS011;69653;52.674;13.574;2023-07-20T01:46:45;6.43;;;3.80;;
80334;SDS011;69653;52.674;13.574;2023-07-20T01:49:10;8.10;;;4.27;;
80334;SDS011;69653;52.674;13.574;2023-07-20T01:51:35;9.93;;;4.10;;
80334;SDS011;69653;52.674;13.574;2023-07-20T01:54:01;7.23;;;4.40;;
80334;SDS011;69653;52.674;13.574;2023-07-20T01:56:26;8.48;;;4.40;;
80334;SDS011;69653;52.674;13.574;2023-07-20T01:58:52;6.53;;;4.50;;
80334;SDS011;69653;52.674;13.574;2023-07-20T02:01:18;7.63;;;3.67;;
80334;SDS011;69653;52.674;13.574;2023-07-20T02:03:43;6.45;;;3.63;;
80334;SDS011;69653;52.674;13.574;2023-07-20T02:06:08;5.73;;;3.23;;
80334;SDS011;69653;52.674;13.574;2023-07-20T02:08:34;7.27;;;3.43;;
80334;SDS011;69653;52.674;13.574;2023-07-20T02:10:59;6.97;;;3.30;;
80334;SDS011;69653;52.674;13.574;2023-07-20T02:13:24;6.07;;;3.40;;
80334;SDS011;69653;52.674;13.574;2023-07-20T02:15:50;6.37;;;3.30;;
80334;SDS011;69653;52.674;13.574;2023-07-20T02:18:16;8.55;;;3.53;;
80334;SDS011;69653;52.674;13.574;2023-07-20T02:20:41;7.28;;;3.78;;
80334;SDS011;69653;52.674;13.574;2023-07-20T02:23:07;6.47;;;3.47;;
80334;SDS011;69653;52.674;13.574;2023-07-20T02:25:32;6.73;;;3.53;;
80334;SDS011;69653;52.674;13.574;2023-07-20T02:27:58;7.33;;;3.53;;
80334;SDS011;69653;52.674;13.574;2023-07-20T02:30:24;6.82;;;3.92;;
80334;SDS011;69653;52.674;13.574;2023-07-20T02:32:49;9.23;;;4.20;;
80334;SDS011;69653;52.674;13.574;2023-07-20T02:35:15;9.20;;;4.43;;
80334;SDS011;69653;52.674;13.574;2023-07-20T02:37:41;8.68;;;5.07;;
80334;SDS011;69653;52.674;13.574;2023-07-20T02:40:06;9.05;;;4.70;;
80334;SDS011;69653;52.674;13.574;2023-07-20T02:42:32;7.82;;;4.47;;
80334;SDS011;69653;52.674;13.574;2023-07-20T02:44:58;9.52;;;4.80;;
80334;SDS011;69653;52.674;13.574;2023-07-20T02:47:23;8.57;;;5.00;;
80334;SDS011;69653;52.674;13.574;2023-07-20T02:49:48;8.07;;;4.33;;
80334;SDS011;69653;52.674;13.574;2023-07-20T02:52:14;8.27;;;4.20;;
80334;SDS011;69653;52.674;13.574;2023-07-20T02:54:39;7.78;;;5.05;;
80334;SDS011;69653;52.674;13.574;2023-07-20T02:57:05;8.07;;;4.70;;
80334;SDS011;69653;52.674;13.574;2023-07-20T02:59:30;8.93;;;4.15;;
80334;SDS011;69653;52.674;13.574;2023-07-20T03:01:55;7.97;;;4.20;;
80334;SDS011;69653;52.674;13.574;2023-07-20T03:04:22;7.88;;;4.38;;
80334;SDS011;69653;52.674;13.574;2023-07-20T03:06:48;11.63;;;4.68;;
80334;SDS011;69653;52.674;13.574;2023-07-20T03:09:13;8.97;;;4.80;;
80334;SDS011;69653;52.674;13.574;2023-07-20T03:11:39;7.90;;;4.60;;
80334;SDS011;69653;52.674;13.574;2023-07-20T03:14:04;7.97;;;4.87;;
80334;SDS011;69653;52.674;13.574;2023-07-20T03:16:29;8.87;;;5.00;;
80334;SDS011;69653;52.674;13.574;2023-07-20T03:18:57;7.75;;;4.93;;
80334;SDS011;69653;52.674;13.574;2023-07-20T03:21:23;10.10;;;5.43;;
80334;SDS011;69653;52.674;13.574;2023-07-20T03:23:48;8.90;;;4.83;;
80334;SDS011;69653;52.674;13.574;2023-07-20T03:26:13;8.90;;;5.10;;
80334;SDS011;69653;52.674;13.574;2023-07-20T03:28:39;9.50;;;4.70;;
80334;SDS011;69653;52.674;13.574;2023-07-20T03:31:04;7.67;;;4.33;;
80334;SDS011;69653;52.674;13.574;2023-07-20T03:33:30;10.32;;;5.25;;
80334;SDS011;69653;52.674;13.574;2023-07-20T03:35:56;9.38;;;5.22;;
80334;SDS011;69653;52.674;13.574;2023-07-20T03:38:23;11.00;;;4.75;;
80334;SDS011;69653;52.674;13.574;2023-07-20T03:40:49;9.27;;;5.57;;
80334;SDS011;69653;52.674;13.574;2023-07-20T03:43:18;9.00;;;4.93;;
80334;SDS011;69653;52.674;13.574;2023-07-20T03:45:44;9.73;;;5.00;;
80334;SDS011;69653;52.674;13.574;2023-07-20T03:48:11;9.98;;;5.57;;
80334;SDS011;69653;52.674;13.574;2023-07-20T03:50:37;10.82;;;5.88;;
80334;SDS011;69653;52.674;13.574;2023-07-20T03:53:03;9.32;;;5.25;;
80334;SDS011;69653;52.674;13.574;2023-07-20T03:55:28;9.95;;;5.63;;
80334;SDS011;69653;52.674;13.574;2023-07-20T03:57:53;9.80;;;5.07;;
80334;SDS011;69653;52.674;13.574;2023-07-20T04:00:19;10.57;;;6.20;;
80334;SDS011;69653;52.674;13.574;2023-07-20T04:02:44;8.93;;;5.45;;
80334;SDS011;69653;52.674;13.574;2023-07-20T04:05:10;9.17;;;5.47;;
80334;SDS011;69653;52.674;13.574;2023-07-20T04:07:35;10.05;;;5.60;;
80334;SDS011;69653;52.674;13.574;2023-07-20T04:10:00;11.57;;;5.63;;
80334;SDS011;69653;52.674;13.574;2023-07-20T04:12:26;9.27;;;6.00;;
80334;SDS011;69653;52.674;13.574;2023-07-20T04:14:51;8.83;;;4.90;;
80334;SDS011;69653;52.674;13.574;2023-07-20T04:17:17;8.43;;;5.00;;
80334;SDS011;69653;52.674;13.574;2023-07-20T04:19:43;8.98;;;5.60;;
80334;SDS011;69653;52.674;13.574;2023-07-20T04:22:09;9.82;;;5.78;;
80334;SDS011;69653;52.674;13.574;2023-07-20T04:24:34;9.40;;;5.30;;
80334;SDS011;69653;52.674;13.574;2023-07-20T04:27:00;7.70;;;5.30;;
80334;SDS011;69653;52.674;13.574;2023-07-20T04:29:25;8.13;;;5.47;;
80334;SDS011;69653;52.674;13.574;2023-07-20T04:31:50;13.20;;;5.90;;
80334;SDS011;69653;52.674;13.574;2023-07-20T04:34:16;9.27;;;5.60;;
80334;SDS011;69653;52.674;13.574;2023-07-20T04:36:41;8.73;;;5.43;;
80334;SDS011;69653;52.674;13.574;2023-07-20T04:39:06;9.53;;;5.97;;
80334;SDS011;69653;52.674;13.574;2023-07-20T04:41:33;11.95;;;5.95;;
80334;SDS011;69653;52.674;13.574;2023-07-20T04:43:59;9.93;;;5.88;;
80334;SDS011;69653;52.674;13.574;2023-07-20T04:46:24;9.33;;;4.87;;
80334;SDS011;69653;52.674;13.574;2023-07-20T04:48:49;8.37;;;4.57;;
80334;SDS011;69653;52.674;13.574;2023-07-20T04:51:15;9.13;;;5.03;;
80334;SDS011;69653;52.674;13.574;2023-07-20T04:53:42;10.10;;;5.40;;
80334;SDS011;69653;52.674;13.574;2023-07-20T04:56:07;9.47;;;4.70;;
80334;SDS011;69653;52.674;13.574;2023-07-20T04:58:33;9.48;;;4.70;;
80334;SDS011;69653;52.674;13.574;2023-07-20T05:00:59;7.63;;;4.80;;
80334;SDS011;69653;52.674;13.574;2023-07-20T05:03:25;7.10;;;3.90;;
80334;SDS011;69653;52.674;13.574;2023-07-20T05:05:51;8.40;;;3.70;;
80334;SDS011;69653;52.674;13.574;2023-07-20T05:08:16;6.37;;;3.60;;
80334;SDS011;69653;52.674;13.574;2023-07-20T05:10:42;8.80;;;3.80;;
80334;SDS011;69653;52.674;13.574;2023-07-20T05:13:07;7.60;;;3.50;;
80334;SDS011;69653;52.674;13.574;2023-07-20T05:15:33;7.73;;;4.07;;
80334;SDS011;69653;52.674;13.574;2023-07-20T05:17:59;6.93;;;4.70;;
80334;SDS011;69653;52.674;13.574;2023-07-20T05:20:25;6.93;;;4.25;;
80334;SDS011;69653;52.674;13.574;2023-07-20T05:22:50;6.40;;;3.92;;
80334;SDS011;69653;52.674;13.574;2023-07-20T05:25:17;6.03;;;3.97;;
80334;SDS011;69653;52.674;13.574;2023-07-20T05:27:43;6.60;;;3.42;;
80334;SDS011;69653;52.674;13.574;2023-07-20T05:30:10;6.03;;;3.72;;
80334;SDS011;69653;52.674;13.574;2023-07-20T05:32:36;7.97;;;3.88;;
80334;SDS011;69653;52.674;13.574;2023-07-20T05:35:01;5.93;;;3.70;;
80334;SDS011;69653;52.674;13.574;2023-07-20T05:37:27;6.38;;;3.60;;
80334;SDS011;69653;52.674;13.574;2023-07-20T05:39:52;6.00;;;3.88;;
80334;SDS011;69653;52.674;13.574;2023-07-20T05:42:17;6.70;;;3.93;;
80334;SDS011;69653;52.674;13.574;2023-07-20T05:44:43;5.50;;;3.50;;
80334;SDS011;69653;52.674;13.574;2023-07-20T05:47:08;6.65;;;3.42;;
80334;SDS011;69653;52.674;13.574;2023-07-20T05:49:34;10.80;;;4.00;;
80334;SDS011;69653;52.674;13.574;2023-07-20T05:51:59;7.45;;;3.60;;
80334;SDS011;69653;52.674;13.574;2023-07-20T05:54:26;7.03;;;3.67;;
80334;SDS011;69653;52.674;13.574;2023-07-20T05:56:51;6.95;;;3.97;;
80334;SDS011;69653;52.674;13.574;2023-07-20T05:59:17;5.37;;;3.43;;
80334;SDS011;69653;52.674;13.574;2023-07-20T06:01:43;5.97;;;3.17;;
80334;SDS011;69653;52.674;13.574;2023-07-20T06:04:09;5.95;;;3.15;;
80334;SDS011;69653;52.674;13.574;2023-07-20T06:06:34;7.70;;;3.53;;
80334;SDS011;69653;52.674;13.574;2023-07-20T06:09:00;5.90;;;3.13;;
80334;SDS011;69653;52.674;13.574;2023-07-20T06:11:29;6.00;;;3.55;;
80334;SDS011;69653;52.674;13.574;2023-07-20T06:13:55;6.38;;;3.30;;
80334;SDS011;69653;52.674;13.574;2023-07-20T06:16:21;6.28;;;3.33;;
80334;SDS011;69653;52.674;13.574;2023-07-20T06:18:46;5.10;;;2.93;;
80334;SDS011;69653;52.674;13.574;2023-07-20T06:21:11;8.95;;;3.47;;
80334;SDS011;69653;52.674;13.574;2023-07-20T06:23:37;5.83;;;2.60;;
80334;SDS011;69653;52.674;13.574;2023-07-20T06:26:02;6.00;;;3.10;;
80334;SDS011;69653;52.674;13.574;2023-07-20T06:28:28;6.10;;;3.42;;
80334;SDS011;69653;52.674;13.574;2023-07-20T06:30:58;4.80;;;2.83;;
80334;SDS011;69653;52.674;13.574;2023-07-20T06:33:24;6.88;;;2.90;;
80334;SDS011;69653;52.674;13.574;2023-07-20T06:35:50;5.30;;;2.30;;
80334;SDS011;69653;52.674;13.574;2023-07-20T06:38:15;4.70;;;2.73;;
80334;SDS011;69653;52.674;13.574;2023-07-20T06:40:40;3.90;;;2.30;;
80334;SDS011;69653;52.674;13.574;2023-07-20T06:43:06;5.10;;;1.90;;
80334;SDS011;69653;52.674;13.574;2023-07-20T06:45:31;6.13;;;2.10;;
80334;SDS011;69653;52.674;13.574;2023-07-20T06:47:56;4.40;;;2.23;;
80334;SDS011;69653;52.674;13.574;2023-07-20T06:50:22;4.23;;;1.90;;
80334;SDS011;69653;52.674;13.574;2023-07-20T06:52:47;4.50;;;2.07;;
80334;SDS011;69653;52.674;13.574;2023-07-20T06:55:13;5.47;;;2.10;;
80334;SDS011;69653;52.674;13.574;2023-07-20T06:57:38;3.13;;;1.40;;
80334;SDS011;69653;52.674;13.574;2023-07-20T07:00:03;3.13;;;1.53;;
80334;SDS011;69653;52.674;13.574;2023-07-20T07:02:29;4.05;;;1.65;;
80334;SDS011;69653;52.674;13.574;2023-07-20T07:04:54;3.67;;;1.53;;
80334;SDS011;69653;52.674;13.574;2023-07-20T07:07:21;4.00;;;1.73;;
80334;SDS011;69653;52.674;13.574;2023-07-20T07:09:47;4.00;;;1.80;;
80334;SDS011;69653;52.674;13.574;2023-07-20T07:12:12;4.07;;;1.50;;
80334;SDS011;69653;52.674;13.574;2023-07-20T07:14:38;3.40;;;1.30;;
80334;SDS011;69653;52.674;13.574;2023-07-20T07:17:03;3.03;;;1.00;;
80334;SDS011;69653;52.674;13.574;2023-07-20T07:19:28;4.88;;;1.30;;
80334;SDS011;69653;52.674;13.574;2023-07-20T07:21:54;2.90;;;1.17;;
80334;SDS011;69653;52.674;13.574;2023-07-20T07:24:19;5.90;;;1.30;;
80334;SDS011;69653;52.674;13.574;2023-07-20T07:26:44;3.50;;;1.20;;
80334;SDS011;69653;52.674;13.574;2023-07-20T07:29:10;7.10;;;1.67;;
80334;SDS011;69653;52.674;13.574;2023-07-20T07:31:35;2.77;;;1.07;;
80334;SDS011;69653;52.674;13.574;2023-07-20T07:34:04;3.65;;;1.23;;
80334;SDS011;69653;52.674;13.574;2023-07-20T07:36:30;2.78;;;0.90;;
80334;SDS011;69653;52.674;13.574;2023-07-20T07:38:56;4.45;;;1.02;;
80334;SDS011;69653;52.674;13.574;2023-07-20T07:41:21;3.27;;;1.00;;
80334;SDS011;69653;52.674;13.574;2023-07-20T07:43:47;2.58;;;0.90;;
80334;SDS011;69653;52.674;13.574;2023-07-20T07:46:12;3.37;;;0.80;;
80334;SDS011;69653;52.674;13.574;2023-07-20T07:48:39;2.72;;;0.95;;
80334;SDS011;69653;52.674;13.574;2023-07-20T07:51:04;3.17;;;1.17;;
80334;SDS011;69653;52.674;13.574;2023-07-20T07:53:29;2.63;;;1.20;;
80334;SDS011;69653;52.674;13.574;2023-07-20T07:55:55;3.50;;;1.00;;
80334;SDS011;69653;52.674;13.574;2023-07-20T07:58:20;4.47;;;1.10;;
80334;SDS011;69653;52.674;13.574;2023-07-20T08:00:46;5.18;;;2.10;;
80334;SDS011;69653;52.674;13.574;2023-07-20T08:03:12;3.40;;;1.20;;
80334;SDS011;69653;52.674;13.574;2023-07-20T08:05:38;4.28;;;1.75;;
80334;SDS011;69653;52.674;13.574;2023-07-20T08:08:03;3.27;;;1.10;;
80334;SDS011;69653;52.674;13.574;2023-07-20T08:10:30;3.58;;;1.40;;
80334;SDS011;69653;52.674;13.574;2023-07-20T08:12:56;6.72;;;2.92;;
80334;SDS011;69653;52.674;13.574;2023-07-20T08:15:21;3.92;;;1.52;;
80334;SDS011;69653;52.674;13.574;2023-07-20T08:17:47;3.42;;;1.10;;
80334;SDS011;69653;52.674;13.574;2023-07-20T08:20:13;5.78;;;1.90;;
80334;SDS011;69653;52.674;13.574;2023-07-20T08:22:41;6.07;;;1.55;;
80334;SDS011;69653;52.674;13.574;2023-07-20T08:25:07;5.72;;;1.50;;
80334;SDS011;69653;52.674;13.574;2023-07-20T08:27:33;6.47;;;1.92;;
80334;SDS011;69653;52.674;13.574;2023-07-20T08:29:58;5.25;;;1.63;;
80334;SDS011;69653;52.674;13.574;2023-07-20T08:32:24;3.28;;;0.93;;
80334;SDS011;69653;52.674;13.574;2023-07-20T08:34:50;2.78;;;0.90;;
80334;SDS011;69653;52.674;13.574;2023-07-20T08:37:16;2.17;;;0.73;;
80334;SDS011;69653;52.674;13.574;2023-07-20T08:39:41;1.77;;;0.57;;
80334;SDS011;69653;52.674;13.574;2023-07-20T08:42:06;2.40;;;0.60;;
80334;SDS011;69653;52.674;13.574;2023-07-20T08:44:33;2.63;;;0.70;;
80334;SDS011;69653;52.674;13.574;2023-07-20T08:46:59;2.55;;;0.60;;
80334;SDS011;69653;52.674;13.574;2023-07-20T08:49:27;3.22;;;0.80;;
80334;SDS011;69653;52.674;13.574;2023-07-20T08:51:53;2.27;;;0.60;;
80334;SDS011;69653;52.674;13.574;2023-07-20T08:54:19;3.30;;;0.75;;
80334;SDS011;69653;52.674;13.574;2023-07-20T08:56:45;4.53;;;0.88;;
80334;SDS011;69653;52.674;13.574;2023-07-20T08:59:19;3.25;;;0.88;;
80334;SDS011;69653;52.674;13.574;2023-07-20T09:01:48;4.25;;;0.88;;
80334;SDS011;69653;52.674;13.574;2023-07-20T09:04:13;1.90;;;0.63;;
80334;SDS011;69653;52.674;13.574;2023-07-20T09:06:38;3.07;;;0.83;;
80334;SDS011;69653;52.674;13.574;2023-07-20T09:09:04;2.25;;;0.57;;
80334;SDS011;69653;52.674;13.574;2023-07-20T09:11:30;1.75;;;0.70;;
80334;SDS011;69653;52.674;13.574;2023-07-20T09:14:02;2.07;;;0.53;;
80334;SDS011;69653;52.674;13.574;2023-07-20T09:16:30;1.90;;;0.60;;
80334;SDS011;69653;52.674;13.574;2023-07-20T09:18:57;4.40;;;2.25;;
80334;SDS011;69653;52.674;13.574;2023-07-20T09:21:23;2.58;;;0.80;;
80334;SDS011;69653;52.674;13.574;2023-07-20T09:23:48;4.87;;;0.77;;
80334;SDS011;69653;52.674;13.574;2023-07-20T09:26:18;3.20;;;0.75;;
80334;SDS011;69653;52.674;13.574;2023-07-20T09:28:44;1.40;;;0.50;;
80334;SDS011;69653;52.674;13.574;2023-07-20T09:31:18;2.80;;;0.70;;
80334;SDS011;69653;52.674;13.574;2023-07-20T09:33:45;2.63;;;0.70;;
80334;SDS011;69653;52.674;13.574;2023-07-20T09:36:11;3.75;;;0.93;;
80334;SDS011;69653;52.674;13.574;2023-07-20T09:38:37;2.55;;;0.70;;
80334;SDS011;69653;52.674;13.574;2023-07-20T09:41:05;1.98;;;0.65;;
80334;SDS011;69653;52.674;13.574;2023-07-20T09:43:31;2.78;;;0.70;;
80334;SDS011;69653;52.674;13.574;2023-07-20T09:45:58;3.55;;;0.70;;
80334;SDS011;69653;52.674;13.574;2023-07-20T09:48:24;1.98;;;0.70;;
80334;SDS011;69653;52.674;13.574;2023-07-20T09:50:50;2.55;;;0.88;;
80334;SDS011;69653;52.674;13.574;2023-07-20T09:53:19;2.47;;;0.60;;
80334;SDS011;69653;52.674;13.574;2023-07-20T09:55:45;2.47;;;0.70;;
80334;SDS011;69653;52.674;13.574;2023-07-20T09:58:12;2.60;;;0.80;;
80334;SDS011;69653;52.674;13.574;2023-07-20T10:00:38;4.95;;;0.88;;
80334;SDS011;69653;52.674;13.574;2023-07-20T10:03:05;2.33;;;0.60;;
80334;SDS011;69653;52.674;13.574;2023-07-20T10:05:35;2.35;;;0.88;;
80334;SDS011;69653;52.674;13.574;2023-07-20T10:08:04;2.17;;;0.70;;
80334;SDS011;69653;52.674;13.574;2023-07-20T10:10:35;3.00;;;0.70;;
80334;SDS011;69653;52.674;13.574;2023-07-20T10:13:02;1.73;;;0.65;;
80334;SDS011;69653;52.674;13.574;2023-07-20T10:15:30;1.77;;;0.60;;
80334;SDS011;69653;52.674;13.574;2023-07-20T10:18:02;2.28;;;0.60;;
80334;SDS011;69653;52.674;13.574;2023-07-20T10:20:33;3.10;;;0.70;;
80334;SDS011;69653;52.674;13.574;2023-07-20T10:23:01;1.92;;;0.82;;
80334;SDS011;69653;52.674;13.574;2023-07-20T10:25:27;6.20;;;0.93;;
80334;SDS011;69653;52.674;13.574;2023-07-20T10:27:53;3.22;;;0.68;;
80334;SDS011;69653;52.674;13.574;2023-07-20T10:30:19;2.10;;;0.80;;
80334;SDS011;69653;52.674;13.574;2023-07-20T10:32:45;3.08;;;0.70;;
80334;SDS011;69653;52.674;13.574;2023-07-20T10:35:12;2.08;;;0.73;;
80334;SDS011;69653;52.674;13.574;2023-07-20T10:37:46;2.00;;;0.70;;
80334;SDS011;69653;52.674;13.574;2023-07-20T10:42:58;2.30;;;0.70;;
80334;SDS011;69653;52.674;13.574;2023-07-20T10:48:19;2.03;;;0.68;;
80334;SDS011;69653;52.674;13.574;2023-07-20T10:51:08;1.20;;;0.50;;
80334;SDS011;69653;52.674;13.574;2023-07-20T10:53:36;2.05;;;0.60;;
80334;SDS011;69653;52.674;13.574;2023-07-20T10:56:08;1.45;;;0.50;;
80334;SDS011;69653;52.674;13.574;2023-07-20T10:58:36;3.08;;;0.70;;
80334;SDS011;69653;52.674;13.574;2023-07-20T11:01:03;2.03;;;0.70;;
80334;SDS011;69653;52.674;13.574;2023-07-20T11:03:31;2.65;;;0.60;;
80334;SDS011;69653;52.674;13.574;2023-07-20T11:08:55;2.90;;;0.70;;
80334;SDS011;69653;52.674;13.574;2023-07-20T11:11:30;2.63;;;0.77;;
80334;SDS011;69653;52.674;13.574;2023-07-20T11:19:04;4.20;;;1.30;;
80334;SDS011;69653;52.674;13.574;2023-07-20T11:21:37;2.03;;;0.63;;
80334;SDS011;69653;52.674;13.574;2023-07-20T11:24:04;5.00;;;1.98;;
80334;SDS011;69653;52.674;13.574;2023-07-20T11:26:39;1.70;;;0.60;;
80334;SDS011;69653;52.674;13.574;2023-07-20T11:29:05;2.63;;;0.80;;
80334;SDS011;69653;52.674;13.574;2023-07-20T11:31:30;1.90;;;0.60;;
80334;SDS011;69653;52.674;13.574;2023-07-20T11:33:55;2.33;;;0.70;;
80334;SDS011;69653;52.674;13.574;2023-07-20T11:36:21;2.47;;;0.70;;
80334;SDS011;69653;52.674;13.574;2023-07-20T11:38:46;2.13;;;0.67;;
80334;SDS011;69653;52.674;13.574;2023-07-20T11:41:12;1.83;;;0.60;;
80334;SDS011;69653;52.674;13.574;2023-07-20T11:43:38;2.25;;;0.60;;
80334;SDS011;69653;52.674;13.574;2023-07-20T11:46:04;2.30;;;0.52;;
80334;SDS011;69653;52.674;13.574;2023-07-20T11:48:30;2.33;;;0.60;;
80334;SDS011;69653;52.674;13.574;2023-07-20T11:50:55;2.30;;;0.70;;
80334;SDS011;69653;52.674;13.574;2023-07-20T11:53:21;2.50;;;0.73;;
80334;SDS011;69653;52.674;13.574;2023-07-20T11:55:46;2.70;;;0.60;;
80334;SDS011;69653;52.674;13.574;2023-07-20T11:58:12;2.28;;;0.90;;
80334;SDS011;69653;52.674;13.574;2023-07-20T12:00:41;2.10;;;0.88;;
80334;SDS011;69653;52.674;13.574;2023-07-20T12:03:09;1.80;;;0.60;;
80334;SDS011;69653;52.674;13.574;2023-07-20T12:05:38;1.42;;;0.50;;
80334;SDS011;69653;52.674;13.574;2023-07-20T12:08:03;2.10;;;0.63;;
80334;SDS011;69653;52.674;13.574;2023-07-20T12:10:29;2.13;;;0.60;;
80334;SDS011;69653;52.674;13.574;2023-07-20T12:13:00;2.83;;;1.00;;
80334;SDS011;69653;52.674;13.574;2023-07-20T12:15:30;2.53;;;1.30;;
80334;SDS011;69653;52.674;13.574;2023-07-20T12:17:57;4.93;;;0.80;;
80334;SDS011;69653;52.674;13.574;2023-07-20T12:23:01;2.90;;;0.80;;
80334;SDS011;69653;52.674;13.574;2023-07-20T12:25:34;1.20;;;0.60;;
80334;SDS011;69653;52.674;13.574;2023-07-20T12:28:01;2.55;;;0.75;;
80334;SDS011;69653;52.674;13.574;2023-07-20T12:30:30;2.10;;;0.77;;
80334;SDS011;69653;52.674;13.574;2023-07-20T12:32:55;3.15;;;0.73;;
80334;SDS011;69653;52.674;13.574;2023-07-20T12:35:20;2.67;;;0.70;;
80334;SDS011;69653;52.674;13.574;2023-07-20T12:37:46;2.20;;;0.70;;
80334;SDS011;69653;52.674;13.574;2023-07-20T12:40:14;1.90;;;0.63;;
80334;SDS011;69653;52.674;13.574;2023-07-20T12:42:39;1.98;;;0.52;;
80334;SDS011;69653;52.674;13.574;2023-07-20T12:45:05;1.53;;;0.50;;
80334;SDS011;69653;52.674;13.574;2023-07-20T12:47:30;2.67;;;0.50;;
80334;SDS011;69653;52.674;13.574;2023-07-20T12:49:56;2.07;;;0.83;;
80334;SDS011;69653;52.674;13.574;2023-07-20T12:52:21;2.83;;;0.50;;
80334;SDS011;69653;52.674;13.574;2023-07-20T12:54:46;2.87;;;0.67;;
80334;SDS011;69653;52.674;13.574;2023-07-20T12:57:12;2.57;;;0.50;;
80334;SDS011;69653;52.674;13.574;2023-07-20T12:59:37;1.67;;;0.60;;
80334;SDS011;69653;52.674;13.574;2023-07-20T13:02:02;1.50;;;0.50;;
80334;SDS011;69653;52.674;13.574;2023-07-20T13:04:28;2.53;;;0.50;;
80334;SDS011;69653;52.674;13.574;2023-07-20T13:06:53;1.57;;;0.50;;
80334;SDS011;69653;52.674;13.574;2023-07-20T13:09:19;2.42;;;0.52;;
80334;SDS011;69653;52.674;13.574;2023-07-20T13:11:44;1.73;;;0.50;;
80334;SDS011;69653;52.674;13.574;2023-07-20T13:14:11;1.35;;;0.50;;
80334;SDS011;69653;52.674;13.574;2023-07-20T13:16:36;1.20;;;0.40;;
80334;SDS011;69653;52.674;13.574;2023-07-20T13:19:02;3.33;;;0.60;;
80334;SDS011;69653;52.674;13.574;2023-07-20T13:21:27;2.77;;;0.50;;
80334;SDS011;69653;52.674;13.574;2023-07-20T13:23:53;1.40;;;0.50;;
80334;SDS011;69653;52.674;13.574;2023-07-20T13:26:18;1.98;;;0.60;;
80334;SDS011;69653;52.674;13.574;2023-07-20T13:28:44;1.05;;;0.43;;
80334;SDS011;69653;52.674;13.574;2023-07-20T13:31:09;2.63;;;0.63;;
80334;SDS011;69653;52.674;13.574;2023-07-20T13:33:36;1.48;;;0.45;;
80334;SDS011;69653;52.674;13.574;2023-07-20T13:36:01;1.50;;;0.50;;
80334;SDS011;69653;52.674;13.574;2023-07-20T13:38:27;2.92;;;0.68;;
80334;SDS011;69653;52.674;13.574;2023-07-20T13:40:52;2.57;;;0.60;;
80334;SDS011;69653;52.674;13.574;2023-07-20T13:43:17;4.03;;;0.70;;
80334;SDS011;69653;52.674;13.574;2023-07-20T13:45:43;1.25;;;0.50;;
80334;SDS011;69653;52.674;13.574;2023-07-20T13:48:08;2.80;;;0.60;;
80334;SDS011;69653;52.674;13.574;2023-07-20T13:50:33;1.58;;;0.52;;
80334;SDS011;69653;52.674;13.574;2023-07-20T13:52:59;2.07;;;0.67;;
80334;SDS011;69653;52.674;13.574;2023-07-20T13:55:24;3.27;;;0.70;;
80334;SDS011;69653;52.674;13.574;2023-07-20T13:57:50;2.13;;;0.73;;
80334;SDS011;69653;52.674;13.574;2023-07-20T14:00:16;2.17;;;0.60;;
80334;SDS011;69653;52.674;13.574;2023-07-20T14:02:42;5.80;;;1.33;;
80334;SDS011;69653;52.674;13.574;2023-07-20T14:05:07;2.40;;;0.73;;
80334;SDS011;69653;52.674;13.574;2023-07-20T14:07:34;3.75;;;0.90;;
80334;SDS011;69653;52.674;13.574;2023-07-20T14:10:02;2.33;;;0.80;;
80334;SDS011;69653;52.674;13.574;2023-07-20T14:12:28;4.50;;;1.52;;
80334;SDS011;69653;52.674;13.574;2023-07-20T14:14:54;5.45;;;2.38;;
80334;SDS011;69653;52.674;13.574;2023-07-20T14:17:20;3.90;;;0.80;;
80334;SDS011;69653;52.674;13.574;2023-07-20T14:19:45;1.97;;;0.60;;
80334;SDS011;69653;52.674;13.574;2023-07-20T14:22:10;2.00;;;0.60;;
80334;SDS011;69653;52.674;13.574;2023-07-20T14:24:36;1.80;;;0.60;;
80334;SDS011;69653;52.674;13.574;2023-07-20T14:27:01;2.42;;;0.50;;
80334;SDS011;69653;52.674;13.574;2023-07-20T14:29:26;1.42;;;0.47;;
80334;SDS011;69653;52.674;13.574;2023-07-20T14:31:52;2.25;;;0.50;;
80334;SDS011;69653;52.674;13.574;2023-07-20T14:34:18;2.03;;;0.60;;
80334;SDS011;69653;52.674;13.574;2023-07-20T14:36:44;4.03;;;0.70;;
80334;SDS011;69653;52.674;13.574;2023-07-20T14:39:09;2.50;;;0.60;;
80334;SDS011;69653;52.674;13.574;2023-07-20T14:41:35;3.63;;;0.60;;
80334;SDS011;69653;52.674;13.574;2023-07-20T14:44:00;2.43;;;0.60;;
80334;SDS011;69653;52.674;13.574;2023-07-20T14:46:25;1.97;;;0.60;;